Startpagina
METAR-TAF:

METAR-TAF

Vliegvelden :

Yap, Yap Island, Micronesië

breedte: 09-29N, lengte: 138-05E, hoogte: 28 m

Actueel weer

Dit bericht is 1 uur en het 8 minuten geleden gemaakt, om 09:55 UTC
Wind 7 kt uit het oostnoordoosten
Temperatuur 28°C
Vochtigheid 84%
Druk 1012 hPa
Zicht: 19.3 km
Weinig wolken op 1600 ft
Verspreide wolken op 13000 ft
Geheel bewolkt op 30000 ft

METAR: PTYA 260955Z 07007KT 12SM FEW016 SCT130 OVC300 28/25 A2988 RMK SLP118 T02800246

Tijdstip: 21:03 (11:03 UTC)

Verwachting

Dit bericht is 5 uur en het 32 minuten geleden gemaakt, om 05:31 UTC
Verwachting geldig van 26 om 06 UTC tot 27 om 06 UTC
Wind 10 kt uit het oostnoordoosten
Zicht: 10 km
Verspreide wolken op 1600 ft
Gebroken wolken op 13000 ft
buien in de omgeving

TAF: PTYA 260531Z 2606/2706 07010KT P6SM VCSH SCT016 BKN130

Waarnemingen en weersverwachtingen van meer dan 4000 vliegvelden (METAR en TAF).

De beschikbare stations zijn de gele en rode punten op de kaart.

Ga met uw muis naar het station om de naam te zien.

Klik dan om waarnemingen en weersverwachtingen te zien.

kaart wijzigen: klik op de groene knoppen met een zwart kruis om in te zoomen, op de groene knop met een streepje om uit te zoomen of op de groene pijlen voor aangrenzende kaarten.


METAR-TAF: